Weather at Afton Municipal Airport

Public forecast

Using degrees Fahrenheit for public forecast. Weather courtesy of forecast.io.

Current aviation weather report (METAR) for Afton Municipal Airport

2024/06/19 03:35 (retrieved 31 minutes ago)

KAFO 190335Z AUTO 00000KT 10SM CLR 05/01 A3013 RMK AO2 LTG DSNT NW

Closest aviation forecast (TAF) to Afton Municipal Airport

Forecast is more than 6 hours old.

Closest forecast is Hill Air Force Base, 105.8 nm (196.0 km) SSW.

2024/06/18 21:03 (retrieved 7 hours ago)

TAF KHIF 182100Z 1821/2003 30012KT 9999 SKC QNH3000INS BECMG 1902/1903 33009KT 9999 FEW150 QNH3002INS BECMG 1903/1904 VRB06KT 9999 FEW150 QNH3003INS BECMG 1904/1905 06009KT 9999 FEW090 SCT150 QNH3004INS BECMG 1918/1919 33012KT 9999 SCT100 QNH3005INS TX25/1921Z TN08/1910Z